Pekin Heights, Illinois
Current Conditions -  °F | °C
As of 2:54 PM on Thursday 20 Nov 2014 (Local Time) from KPIA Reporting Station
Clear Clear  
Wind Chill: 23°   Ceiling: Unl
Heat Index: 33°   Visibility: 10mi
Dew Point:   Wind: 15mph
Humidity: 34%   Direction: 280°W
Pressure: 30.17"   Gusts: 20mph
Location:  40.5452°N, 89.6011°W
Report Text: KPIA 202054Z 28013G17KT 10SM CLR 01/M14 A3017 RMK AO2 SLP224 T00061139 55002
Loading
Personal Weather Stations






























Interactive Weather Map New forecast layout! Learn more

10-Day Weather Forecast

Advertisements
Track Severe Weather on mobile